Time;durP1;ratioP1;P1;durP2;ratioP2;P2;SDS_P1;SDS_P2;PMS_P1;PMS_P2;Temp;Humidity;BMP_temperature;BMP_pressure;BME280_temperature;BME280_humidity;BME280_pressure;Samples;Min_cycle;Max_cycle;Signal;HPM_P1;HPM_P2
2022/10/14 00:00:12;;;;;;;13.75;8.32;;;13.10;99.90;;;;;;4992116;28;20025;-78
2022/10/14 00:02:38;;;;;;;20.38;10.52;;;13.10;99.90;;;;;;4989955;28;20397;-78
2022/10/14 00:05:03;;;;;;;14.70;9.32;;;13.00;99.90;;;;;;4983977;28;20025;-79
2022/10/14 00:07:29;;;;;;;12.75;8.45;;;13.00;99.90;;;;;;5007042;28;20042;-78
2022/10/14 00:09:54;;;;;;;19.45;9.75;;;13.10;99.90;;;;;;4991144;28;20025;-78
2022/10/14 00:12:20;;;;;;;10.20;7.43;;;13.10;99.90;;;;;;5006872;28;20041;-78
2022/10/14 00:14:46;;;;;;;12.05;8.40;;;13.10;99.90;;;;;;5006785;28;20033;-78
2022/10/14 00:17:11;;;;;;;15.63;8.93;;;13.10;99.90;;;;;;5007835;28;20160;-78
2022/10/14 00:19:37;;;;;;;11.63;7.68;;;13.10;99.90;;;;;;5023687;28;20030;-78
2022/10/14 00:22:02;;;;;;;14.05;9.65;;;13.10;99.90;;;;;;4990920;28;20022;-78
2022/10/14 00:24:28;;;;;;;13.02;7.93;;;13.10;99.90;;;;;;4996582;28;20036;-79
2022/10/14 00:26:53;;;;;;;13.50;7.90;;;13.10;99.90;;;;;;5007889;28;20034;-78
2022/10/14 00:29:19;;;;;;;14.93;8.52;;;13.10;99.90;;;;;;5007978;28;20519;-78
2022/10/14 00:31:45;;;;;;;10.02;7.05;;;13.10;99.90;;;;;;5008212;28;20033;-78
2022/10/14 00:34:12;;;;;;;11.52;7.40;;;13.10;99.90;;;;;;4990468;28;20083;-79
2022/10/14 00:36:38;;;;;;;16.40;8.25;;;13.10;99.90;;;;;;5008301;28;20552;-78
2022/10/14 00:39:03;;;;;;;19.33;9.23;;;13.10;99.90;;;;;;4998989;28;20148;-78
2022/10/14 00:41:30;;;;;;;12.82;8.60;;;13.10;99.90;;;;;;5006507;28;20055;-78
2022/10/14 00:44:06;;;;;;;12.38;8.25;;;13.10;99.90;;;;;;4990766;28;20033;-79
2022/10/14 00:46:39;;;;;;;;;;;13.10;99.90;;;;;;5024465;28;20060;-79
2022/10/14 00:49:07;;;;;;;11.73;8.20;;;13.10;99.90;;;;;;5023376;28;21383;-78
2022/10/14 00:51:32;;;;;;;11.95;9.05;;;13.10;99.90;;;;;;4990368;28;20026;-78
2022/10/14 00:53:58;;;;;;;11.95;8.43;;;13.00;99.90;;;;;;5023542;28;20036;-79
2022/10/14 00:56:25;;;;;;;15.07;9.23;;;13.10;99.90;;;;;;5022969;28;20564;-76
2022/10/14 00:58:50;;;;;;;11.80;8.38;;;13.10;99.90;;;;;;4990323;28;20040;-77
2022/10/14 01:01:16;;;;;;;14.68;8.35;;;13.10;99.90;;;;;;4990854;28;20034;-76
2022/10/14 01:03:41;;;;;;;14.65;8.05;;;13.10;99.90;;;;;;5025404;28;20034;-77
2022/10/14 01:06:20;;;;;;;14.32;9.70;;;13.10;99.90;;;;;;4991426;28;20238;-77
2022/10/14 01:08:56;;;;;;;14.80;9.15;;;13.10;99.90;;;;;;5006444;28;20523;-77
2022/10/14 01:11:30;;;;;;;15.63;8.57;;;13.20;99.90;;;;;;5006416;28;20481;-77
2022/10/14 01:13:58;;;;;;;14.00;8.70;;;13.20;99.90;;;;;;5001915;28;20481;-77
2022/10/14 01:16:55;;;;;;;10.93;7.97;;;13.10;99.90;;;;;;5023196;28;20033;-77
2022/10/14 01:19:21;;;;;;;;;;;13.10;99.90;;;;;;5008960;28;20029;-77
2022/10/14 01:21:57;;;;;;;14.07;8.57;;;13.10;99.90;;;;;;5026161;28;20412;-77
2022/10/14 01:24:31;;;;;;;12.10;8.05;;;13.10;99.90;;;;;;5007440;28;20029;-77
2022/10/14 01:27:35;;;;;;;13.90;9.18;;;13.10;99.90;;;;;;5024663;28;20124;-78
2022/10/14 01:30:07;;;;;;;10.25;8.45;;;13.10;99.90;;;;;;4962336;28;20034;-79
2022/10/14 01:32:58;;;;;;;10.18;8.25;;;13.10;99.90;;;;;;5009400;28;20044;-79
2022/10/14 01:35:51;;;;;;;10.30;7.60;;;13.10;99.90;;;;;;5019957;28;20506;-79
2022/10/14 01:38:23;;;;;;;13.77;8.68;;;13.10;99.90;;;;;;5020253;28;20031;-79
2022/10/14 01:40:54;;;;;;;14.57;10.68;;;13.10;99.90;;;;;;5006907;28;20381;-79
2022/10/14 01:43:20;;;;;;;12.30;7.68;;;13.10;99.90;;;;;;5008453;28;20026;-79
2022/10/14 01:45:45;;;;;;;13.30;8.25;;;13.10;99.90;;;;;;5001987;28;20045;-78
2022/10/14 01:48:11;;;;;;;11.45;9.88;;;13.10;99.90;;;;;;5026936;28;20033;-79
2022/10/14 01:50:37;;;;;;;9.60;7.93;;;13.10;99.90;;;;;;5010688;28;20089;-79
2022/10/14 01:53:05;;;;;;;10.35;7.93;;;13.10;99.90;;;;;;4997668;28;20429;-79
2022/10/14 01:55:34;;;;;;;9.40;7.53;;;13.00;99.90;;;;;;5013781;28;20022;-79
2022/10/14 01:57:59;;;;;;;10.55;7.60;;;13.00;99.90;;;;;;5011432;28;20389;-79
2022/10/14 02:00:25;;;;;;;9.60;7.60;;;13.00;99.90;;;;;;5008755;28;20041;-80
2022/10/14 02:02:51;;;;;;;14.45;9.43;;;13.00;99.90;;;;;;5014703;28;20070;-79
2022/10/14 02:05:29;;;;;;;13.38;10.88;;;12.90;99.90;;;;;;5015336;28;20128;-79
2022/10/14 02:07:57;;;;;;;9.10;7.68;;;12.90;99.90;;;;;;5008359;28;20135;-79
2022/10/14 02:10:49;;;;;;;12.95;9.82;;;12.90;99.90;;;;;;5013228;28;20102;-79
2022/10/14 02:13:43;;;;;;;13.50;10.30;;;12.90;99.90;;;;;;5011434;28;20033;-79
2022/10/14 02:16:23;;;;;;;7.25;6.50;;;12.90;99.90;;;;;;5002429;28;20025;-80
2022/10/14 02:18:54;;;;;;;11.93;9.65;;;12.90;99.90;;;;;;5009108;28;20029;-79
2022/10/14 02:21:36;;;;;;;13.23;10.70;;;12.90;99.90;;;;;;5006004;28;20503;-79
2022/10/14 02:24:08;;;;;;;14.65;12.13;;;12.90;99.90;;;;;;5012761;28;20159;-81
2022/10/14 02:26:34;;;;;;;16.48;13.65;;;12.90;99.90;;;;;;5007214;28;20088;-81
2022/10/14 02:28:59;;;;;;;14.52;10.05;;;12.90;99.90;;;;;;5013081;28;20072;-78
2022/10/14 02:31:25;;;;;;;15.10;12.73;;;12.90;99.90;;;;;;5026040;28;20102;-79
2022/10/14 02:33:52;;;;;;;15.75;11.88;;;12.90;99.90;;;;;;5026716;28;20029;-80
2022/10/14 02:36:20;;;;;;;14.20;11.48;;;12.90;99.90;;;;;;5026394;28;20641;-80
2022/10/14 02:38:45;;;;;;;8.50;6.95;;;12.90;99.90;;;;;;5008664;28;20060;-80
2022/10/14 02:41:13;;;;;;;17.92;14.35;;;12.90;99.90;;;;;;4992460;28;20365;-79
2022/10/14 02:43:39;;;;;;;10.13;7.53;;;12.90;99.90;;;;;;5008965;28;20095;-78
2022/10/14 02:46:04;;;;;;;13.63;10.43;;;12.80;99.90;;;;;;4993266;28;20025;-78
2022/10/14 02:48:30;;;;;;;15.55;12.05;;;12.90;99.90;;;;;;5025359;28;20485;-78
2022/10/14 02:50:55;;;;;;;20.17;15.43;;;12.90;99.90;;;;;;5026050;28;20033;-78
2022/10/14 02:53:21;;;;;;;11.75;9.82;;;12.90;99.90;;;;;;5004837;28;20033;-81
2022/10/14 02:55:46;;;;;;;12.25;8.98;;;12.90;99.90;;;;;;4992261;28;20030;-78
2022/10/14 02:58:12;;;;;;;11.00;7.53;;;12.90;99.90;;;;;;5026165;28;20033;-79
2022/10/14 03:00:37;;;;;;;11.93;9.35;;;12.90;99.90;;;;;;5007720;28;20033;-77
2022/10/14 03:03:03;;;;;;;9.00;6.85;;;12.90;99.90;;;;;;5008103;28;20037;-78
2022/10/14 03:05:28;;;;;;;10.90;9.73;;;12.90;99.90;;;;;;5025720;28;20048;-77
2022/10/14 03:07:54;;;;;;;17.80;13.20;;;12.80;99.90;;;;;;5009137;28;20120;-77
2022/10/14 03:10:21;;;;;;;15.95;11.20;;;12.90;99.90;;;;;;4992674;28;20045;-77
2022/10/14 03:12:46;;;;;;;14.75;11.45;;;12.90;99.90;;;;;;5025005;28;20087;-77
2022/10/14 03:15:12;;;;;;;14.13;11.85;;;12.90;99.90;;;;;;4991575;28;20029;-77
2022/10/14 03:17:38;;;;;;;16.52;12.05;;;12.90;99.90;;;;;;5024935;28;20036;-77
2022/10/14 03:20:04;;;;;;;14.52;11.20;;;13.00;99.90;;;;;;5007648;28;20052;-77
2022/10/14 03:22:30;;;;;;;12.80;10.73;;;12.90;99.90;;;;;;5009494;28;20488;-77
2022/10/14 03:24:55;;;;;;;18.35;13.77;;;12.90;99.90;;;;;;5007534;28;20045;-78
2022/10/14 03:27:21;;;;;;;16.70;13.38;;;13.00;99.90;;;;;;5013319;28;20035;-77
2022/10/14 03:29:46;;;;;;;11.82;10.43;;;13.00;99.90;;;;;;5007818;28;20021;-78
2022/10/14 03:32:12;;;;;;;12.85;10.68;;;12.90;99.90;;;;;;5007748;28;20036;-77
2022/10/14 03:34:37;;;;;;;15.05;11.13;;;13.00;99.90;;;;;;5011706;28;20041;-78
2022/10/14 03:37:03;;;;;;;14.77;10.52;;;13.00;99.90;;;;;;5007635;28;20123;-78
2022/10/14 03:39:29;;;;;;;12.48;10.60;;;12.90;99.90;;;;;;5011702;28;20048;-77
2022/10/14 03:41:54;;;;;;;12.05;9.10;;;12.90;99.90;;;;;;5001924;28;20030;-77
2022/10/14 03:44:20;;;;;;;11.15;9.77;;;12.90;99.90;;;;;;4995951;28;20705;-77
2022/10/14 03:46:45;;;;;;;13.93;10.52;;;12.90;99.90;;;;;;4991721;28;20041;-79
2022/10/14 03:49:11;;;;;;;10.80;8.90;;;12.90;99.90;;;;;;5007389;28;20043;-77
2022/10/14 03:51:37;;;;;;;12.05;10.25;;;12.90;99.90;;;;;;4992263;28;20029;-77
2022/10/14 03:54:02;;;;;;;12.13;9.27;;;12.90;99.90;;;;;;5007876;28;20149;-77
2022/10/14 03:56:28;;;;;;;11.13;9.13;;;12.90;99.90;;;;;;4991458;28;20481;-78
2022/10/14 03:58:53;;;;;;;9.27;8.10;;;12.90;99.90;;;;;;5007175;28;20040;-77
2022/10/14 04:01:19;;;;;;;10.25;9.15;;;12.90;99.90;;;;;;5005764;28;20033;-80
2022/10/14 04:03:45;;;;;;;10.43;8.35;;;12.90;99.90;;;;;;5006994;28;20091;-78
2022/10/14 04:06:13;;;;;;;10.07;8.32;;;12.90;99.90;;;;;;4989685;28;20031;-77
2022/10/14 04:08:39;;;;;;;9.88;8.55;;;12.90;99.90;;;;;;5007002;28;20052;-77
2022/10/14 04:11:05;;;;;;;11.30;7.15;;;12.90;99.90;;;;;;5007077;28;20389;-78
2022/10/14 04:13:31;;;;;;;13.52;11.23;;;12.90;99.90;;;;;;5010219;28;20040;-78
2022/10/14 04:15:56;;;;;;;14.50;10.80;;;12.90;99.90;;;;;;5012419;28;20029;-78
2022/10/14 04:18:22;;;;;;;10.93;8.38;;;12.90;99.90;;;;;;5013101;28;20026;-77
2022/10/14 04:20:47;;;;;;;10.65;8.55;;;12.90;99.90;;;;;;5009765;28;20052;-77
2022/10/14 04:23:13;;;;;;;15.63;11.75;;;12.80;99.90;;;;;;4997140;28;20049;-78
2022/10/14 04:25:39;;;;;;;16.40;12.70;;;12.80;99.90;;;;;;5027088;28;20033;-78
2022/10/14 04:28:04;;;;;;;11.73;10.05;;;12.80;99.90;;;;;;5009688;28;20048;-78
2022/10/14 04:30:30;;;;;;;10.48;9.07;;;12.80;99.90;;;;;;4995669;28;20103;-78
2022/10/14 04:32:55;;;;;;;9.85;8.27;;;12.80;99.90;;;;;;5016660;28;20036;-77
2022/10/14 04:35:21;;;;;;;11.88;8.43;;;12.80;99.90;;;;;;5008786;28;20022;-78
2022/10/14 04:37:46;;;;;;;8.40;7.38;;;12.80;99.90;;;;;;4993376;28;20083;-78
2022/10/14 04:40:12;;;;;;;9.82;8.00;;;12.70;99.90;;;;;;4994822;28;20122;-78
2022/10/14 04:42:37;;;;;;;9.60;7.97;;;12.70;99.90;;;;;;5010230;28;20117;-78
2022/10/14 04:45:03;;;;;;;10.15;8.18;;;12.70;99.90;;;;;;5011877;28;20045;-78
2022/10/14 04:47:29;;;;;;;11.13;8.95;;;12.70;99.90;;;;;;4993637;28;20061;-78
2022/10/14 04:49:54;;;;;;;15.07;11.75;;;12.80;99.90;;;;;;5006824;28;20025;-78
2022/10/14 04:52:20;;;;;;;15.85;12.40;;;12.80;99.90;;;;;;4993896;28;20128;-78
2022/10/14 04:54:45;;;;;;;8.45;6.30;;;12.70;99.90;;;;;;5028654;28;20108;-80
2022/10/14 04:57:11;;;;;;;10.30;8.70;;;12.80;99.90;;;;;;5027319;28;20116;-80
2022/10/14 04:59:37;;;;;;;12.25;9.68;;;12.70;99.90;;;;;;5009884;28;20488;-80
2022/10/14 05:02:02;;;;;;;7.60;6.15;;;12.70;99.90;;;;;;4996129;28;20098;-80
2022/10/14 05:04:28;;;;;;;13.05;9.65;;;12.70;99.90;;;;;;4991056;28;20033;-80
2022/10/14 05:06:53;;;;;;;12.43;7.78;;;12.70;99.90;;;;;;5006480;28;20037;-82
2022/10/14 05:09:19;;;;;;;9.38;7.43;;;12.70;99.90;;;;;;4991024;28;20040;-80
2022/10/14 05:11:44;;;;;;;11.15;7.95;;;12.70;99.90;;;;;;5006668;28;20129;-80
2022/10/14 05:14:10;;;;;;;8.40;7.50;;;12.70;99.90;;;;;;5005710;28;20577;-80
2022/10/14 05:16:35;;;;;;;13.95;10.57;;;12.70;99.90;;;;;;5006932;28;20393;-80
2022/10/14 05:19:01;;;;;;;11.23;9.15;;;12.70;99.90;;;;;;5011372;28;20500;-80
2022/10/14 05:21:26;;;;;;;14.50;8.95;;;12.70;99.90;;;;;;5011725;28;20037;-81
2022/10/14 05:23:52;;;;;;;17.63;11.07;;;12.70;99.90;;;;;;4999348;28;20116;-81
2022/10/14 05:26:18;;;;;;;14.65;11.40;;;12.70;99.90;;;;;;4648867;28;9999765;-81
2022/10/14 05:28:43;;;;;;;13.45;11.15;;;12.70;99.90;;;;;;5016417;28;20051;-81
2022/10/14 05:31:09;;;;;;;10.55;8.73;;;12.70;99.90;;;;;;4993076;28;20021;-80
2022/10/14 05:33:35;;;;;;;8.25;6.68;;;12.70;99.90;;;;;;5010039;28;20030;-80
2022/10/14 05:36:01;;;;;;;13.85;11.00;;;12.70;99.90;;;;;;4993805;28;20428;-83
2022/10/14 05:38:27;;;;;;;16.73;12.07;;;12.70;99.90;;;;;;5010057;28;20026;-82
2022/10/14 05:40:56;;;;;;;8.80;6.47;;;12.70;99.90;;;;;;5009162;28;20984;-82
2022/10/14 05:43:23;;;;;;;10.85;9.00;;;12.60;99.90;;;;;;5007331;28;20021;-82
2022/10/14 05:45:49;;;;;;;10.75;8.15;;;12.60;99.90;;;;;;5009992;28;20413;-82
2022/10/14 05:48:14;;;;;;;9.73;7.40;;;12.70;99.90;;;;;;5009775;28;20038;-82
2022/10/14 05:50:41;;;;;;;8.80;7.45;;;12.70;99.90;;;;;;4992756;28;20037;-82
2022/10/14 05:53:06;;;;;;;7.72;6.28;;;12.70;99.90;;;;;;5009355;28;20043;-82
2022/10/14 05:55:32;;;;;;;8.30;6.65;;;12.70;99.90;;;;;;5004905;28;20120;-82
2022/10/14 05:57:57;;;;;;;10.95;8.32;;;12.70;99.90;;;;;;5008030;28;20628;-82
2022/10/14 06:00:23;;;;;;;10.75;9.25;;;12.70;99.90;;;;;;5010226;28;20037;-81
2022/10/14 06:02:49;;;;;;;8.13;7.32;;;12.70;99.90;;;;;;4994476;28;20480;-81
2022/10/14 06:05:14;;;;;;;12.05;9.77;;;12.70;99.90;;;;;;4993926;28;20029;-81
2022/10/14 06:07:40;;;;;;;12.93;9.90;;;12.80;99.90;;;;;;5010532;28;20053;-81
2022/10/14 06:10:06;;;;;;;6.65;5.97;;;12.70;99.90;;;;;;4995621;28;20033;-82
2022/10/14 06:12:31;;;;;;;13.10;10.40;;;12.80;99.90;;;;;;5011266;28;20040;-80
2022/10/14 06:14:57;;;;;;;10.02;8.32;;;12.80;99.90;;;;;;5010230;28;20551;-80
2022/10/14 06:17:22;;;;;;;8.20;6.68;;;12.80;99.90;;;;;;4993529;28;20032;-81
2022/10/14 06:19:48;;;;;;;11.82;9.38;;;12.80;99.90;;;;;;4996321;28;20029;-81
2022/10/14 06:22:14;;;;;;;9.85;8.82;;;12.90;99.90;;;;;;5010306;28;20508;-81
2022/10/14 06:24:39;;;;;;;9.10;7.75;;;12.90;99.90;;;;;;5009658;28;20111;-82
2022/10/14 06:27:05;;;;;;;11.73;7.55;;;12.90;99.90;;;;;;4993700;28;20026;-82
2022/10/14 06:29:36;;;;;;;8.73;7.45;;;12.90;99.90;;;;;;4991404;28;20034;-81
2022/10/14 06:32:05;;;;;;;7.00;6.28;;;13.00;99.90;;;;;;4997624;28;20030;-82
2022/10/14 06:34:31;;;;;;;7.57;5.90;;;13.00;99.90;;;;;;5007627;28;20041;-82
2022/10/14 06:36:56;;;;;;;5.53;4.57;;;13.10;99.90;;;;;;4993651;28;20025;-82
2022/10/14 06:39:22;;;;;;;7.78;6.68;;;13.10;99.90;;;;;;5010485;28;20060;-82
2022/10/14 06:41:47;;;;;;;9.00;8.10;;;13.10;99.90;;;;;;5009401;28;20029;-80
2022/10/14 06:44:14;;;;;;;7.20;6.50;;;13.10;99.90;;;;;;5025906;28;20030;-80
2022/10/14 06:46:40;;;;;;;7.90;6.90;;;13.10;99.90;;;;;;4995456;28;20033;-80
2022/10/14 06:49:06;;;;;;;7.18;5.97;;;13.10;99.90;;;;;;5026657;28;20037;-79
2022/10/14 06:51:31;;;;;;;8.90;7.00;;;13.10;99.90;;;;;;4993748;28;20021;-79
2022/10/14 06:53:57;;;;;;;7.15;5.38;;;13.20;99.90;;;;;;4991721;28;20026;-80
2022/10/14 06:56:23;;;;;;;9.27;7.95;;;13.20;99.90;;;;;;5010336;28;20030;-80
2022/10/14 06:58:52;;;;;;;7.28;5.95;;;13.20;99.90;;;;;;5028888;28;20080;-82
2022/10/14 07:01:18;;;;;;;7.63;5.50;;;13.30;99.90;;;;;;4991258;28;20028;-81
2022/10/14 07:03:43;;;;;;;9.35;8.32;;;13.30;99.90;;;;;;5009436;28;20025;-81
2022/10/14 07:06:09;;;;;;;7.35;6.65;;;13.30;99.90;;;;;;5011250;28;20124;-81
2022/10/14 07:08:35;;;;;;;8.63;7.60;;;13.40;99.90;;;;;;5029294;28;20030;-81
2022/10/14 07:11:01;;;;;;;10.02;9.02;;;13.40;99.90;;;;;;4999077;28;20445;-81
2022/10/14 07:13:26;;;;;;;17.20;9.35;;;13.40;99.90;;;;;;5010472;28;20033;-81
2022/10/14 07:15:52;;;;;;;9.60;7.35;;;13.50;99.90;;;;;;4994761;28;20032;-81
2022/10/14 07:18:18;;;;;;;8.48;7.13;;;13.50;99.90;;;;;;5011693;28;20032;-81
2022/10/14 07:20:44;;;;;;;8.65;7.40;;;13.60;99.90;;;;;;5010204;28;20022;-81
2022/10/14 07:23:10;;;;;;;8.13;7.22;;;13.60;99.90;;;;;;5013223;28;20029;-81
2022/10/14 07:25:36;;;;;;;8.82;5.65;;;13.60;99.90;;;;;;4996209;28;20044;-81
2022/10/14 07:28:01;;;;;;;5.63;4.97;;;13.70;99.90;;;;;;5015454;28;20044;-81
2022/10/14 07:30:27;;;;;;;6.07;5.47;;;13.70;99.90;;;;;;5009123;28;20038;-81
2022/10/14 07:32:52;;;;;;;5.65;4.38;;;13.80;99.90;;;;;;5009618;28;20025;-81
2022/10/14 07:35:18;;;;;;;6.78;4.30;;;13.70;99.90;;;;;;4992551;28;20385;-82
2022/10/14 07:37:44;;;;;;;6.88;4.90;;;13.80;99.90;;;;;;5008610;28;20038;-78
2022/10/14 07:40:10;;;;;;;5.68;4.50;;;13.90;99.90;;;;;;4993363;28;20033;-79
2022/10/14 07:42:36;;;;;;;6.55;3.65;;;13.90;99.90;;;;;;5009503;28;20032;-79
2022/10/14 07:45:02;;;;;;;6.68;4.25;;;13.90;99.90;;;;;;5008452;28;20080;-79
2022/10/14 07:47:28;;;;;;;4.10;3.70;;;13.90;99.90;;;;;;4992130;28;20128;-80
2022/10/14 07:49:53;;;;;;;6.10;3.78;;;13.90;99.90;;;;;;5008194;28;20104;-79
2022/10/14 07:52:19;;;;;;;5.68;3.45;;;14.00;99.90;;;;;;4996746;28;20437;-79
2022/10/14 07:54:45;;;;;;;5.28;4.20;;;14.00;99.90;;;;;;5007374;28;20037;-79
2022/10/14 07:57:11;;;;;;;4.38;3.70;;;14.00;99.90;;;;;;5008791;28;20385;-79
2022/10/14 07:59:36;;;;;;;3.55;3.25;;;14.10;99.90;;;;;;4992916;28;20045;-80
2022/10/14 08:02:02;;;;;;;5.20;3.33;;;14.10;99.90;;;;;;4991490;28;20033;-79
2022/10/14 08:04:28;;;;;;;4.47;2.97;;;14.20;99.90;;;;;;4991407;28;20041;-79
2022/10/14 08:06:53;;;;;;;3.15;2.85;;;14.30;99.90;;;;;;5024037;28;20067;-80
2022/10/14 08:09:19;;;;;;;4.85;3.17;;;14.30;99.90;;;;;;4661518;28;10000551;-79
2022/10/14 08:11:45;;;;;;;3.17;2.40;;;14.40;99.90;;;;;;4994180;28;20107;-81
2022/10/14 08:14:11;;;;;;;4.10;2.90;;;14.40;99.90;;;;;;4990809;28;20435;-81
2022/10/14 08:16:36;;;;;;;3.78;2.38;;;14.50;99.90;;;;;;5006432;28;20037;-81
2022/10/14 08:19:05;;;;;;;3.05;2.47;;;14.40;99.90;;;;;;5011552;28;20370;-81
2022/10/14 08:21:30;;;;;;;2.53;2.30;;;14.50;99.90;;;;;;5009022;28;20552;-81
2022/10/14 08:23:56;;;;;;;3.58;2.00;;;14.60;99.90;;;;;;4991696;28;20167;-79
2022/10/14 08:26:27;;;;;;;1.70;1.55;;;14.60;99.90;;;;;;4993032;28;20132;-80
2022/10/14 08:28:52;;;;;;;4.05;2.05;;;14.60;99.90;;;;;;5010439;28;20029;-80
2022/10/14 08:31:18;;;;;;;3.83;1.95;;;14.70;99.90;;;;;;5009101;28;20551;-79
2022/10/14 08:33:44;;;;;;;2.45;2.00;;;14.70;99.90;;;;;;5008417;28;20030;-79
2022/10/14 08:36:09;;;;;;;2.47;2.03;;;14.70;99.90;;;;;;4992340;28;20089;-79
2022/10/14 08:38:35;;;;;;;2.20;2.00;;;14.90;99.90;;;;;;5008108;28;20523;-79
2022/10/14 08:41:15;;;;;;;2.67;1.90;;;14.90;99.90;;;;;;5000726;28;20033;-79
2022/10/14 08:44:00;;;;;;;3.15;1.70;;;14.90;99.90;;;;;;5021516;28;20087;-79
2022/10/14 08:46:32;;;;;;;3.75;2.30;;;14.90;99.90;;;;;;5022126;28;20030;-79
2022/10/14 08:49:28;;;;;;;1.80;1.52;;;14.90;99.90;;;;;;5009814;28;20036;-79
2022/10/14 08:51:59;;;;;;;3.33;2.20;;;15.00;99.90;;;;;;5025307;28;20108;-79
2022/10/14 08:54:33;;;;;;;3.67;1.88;;;15.10;99.90;;;;;;5011869;28;20582;-79
2022/10/14 08:56:59;;;;;;;2.67;2.03;;;15.10;99.90;;;;;;4997438;28;20440;-80
2022/10/14 08:59:24;;;;;;;1.85;1.75;;;15.20;99.90;;;;;;5011075;28;20026;-79
2022/10/14 09:01:59;;;;;;;2.15;1.88;;;15.30;99.90;;;;;;4995853;28;20105;-79
2022/10/14 09:04:25;;;;;;;2.90;1.85;;;15.30;99.90;;;;;;4991084;28;20446;-79
2022/10/14 09:06:50;;;;;;;2.03;1.92;;;15.20;99.90;;;;;;4996558;28;20051;-79
2022/10/14 09:09:37;;;;;;;2.50;1.63;;;15.30;99.90;;;;;;5017418;28;20044;-80
2022/10/14 09:12:05;;;;;;;2.22;2.03;;;15.30;99.90;;;;;;5030570;28;20037;-79
2022/10/14 09:14:38;;;;;;;1.83;1.65;;;15.40;99.90;;;;;;5007449;28;20037;-80
2022/10/14 09:17:12;;;;;;;2.47;1.73;;;15.60;99.90;;;;;;4995541;28;20048;-79
2022/10/14 09:19:45;;;;;;;2.17;1.80;;;15.70;99.90;;;;;;5013721;28;20030;-79
2022/10/14 09:22:12;;;;;;;1.90;1.70;;;15.70;99.90;;;;;;4997337;28;20049;-79
2022/10/14 09:24:40;;;;;;;2.75;1.80;;;15.60;99.90;;;;;;5031668;28;20485;-79
2022/10/14 09:27:10;;;;;;;1.42;1.30;;;15.90;99.90;;;;;;5010836;28;20100;-79
2022/10/14 09:29:48;;;;;;;4.20;1.50;;;15.90;99.90;;;;;;5013907;28;20033;-79
2022/10/14 09:32:26;;;;;;;1.85;1.73;;;16.00;99.90;;;;;;5013272;28;20036;-80
2022/10/14 09:34:51;;;;;;;1.50;1.40;;;16.00;99.90;;;;;;5030068;28;20044;-79
2022/10/14 09:37:20;;;;;;;1.33;1.23;;;16.10;99.90;;;;;;5008860;28;20038;-79
2022/10/14 09:39:46;;;;;;;1.00;1.00;;;16.20;99.90;;;;;;5029582;28;20052;-79
2022/10/14 09:42:17;;;;;;;2.65;1.60;;;16.10;99.90;;;;;;5000841;28;20038;-79
2022/10/14 09:44:43;;;;;;;2.67;1.67;;;16.30;99.90;;;;;;5010006;28;20516;-80
2022/10/14 09:47:12;;;;;;;2.63;1.58;;;16.40;99.90;;;;;;5010870;28;20030;-80
2022/10/14 09:49:40;;;;;;;1.60;1.50;;;16.40;99.90;;;;;;4997874;28;20034;-79
2022/10/14 09:52:06;;;;;;;1.52;1.25;;;16.50;99.90;;;;;;4986579;28;20042;-78
2022/10/14 09:54:31;;;;;;;2.53;1.25;;;16.80;99.90;;;;;;5012754;28;20029;-79
2022/10/14 09:57:03;;;;;;;2.40;1.60;;;17.00;99.90;;;;;;5028229;28;20034;-79
2022/10/14 09:59:30;;;;;;;2.65;1.88;;;17.10;99.90;;;;;;5011829;28;20044;-79
2022/10/14 10:01:59;;;;;;;1.90;1.30;;;17.00;99.90;;;;;;4995440;28;20026;-81
2022/10/14 10:04:30;;;;;;;2.92;1.30;;;17.20;99.90;;;;;;5031889;28;20607;-81
2022/10/14 10:06:56;;;;;;;1.60;1.50;;;17.20;99.90;;;;;;5018882;28;20500;-81
2022/10/14 10:09:22;;;;;;;2.97;1.30;;;17.30;99.90;;;;;;5020017;28;20512;-81
2022/10/14 10:11:48;;;;;;;1.50;1.38;;;17.60;99.90;;;;;;5027772;28;20034;-80
2022/10/14 10:14:31;;;;;;;1.75;1.65;;;17.50;99.90;;;;;;5028757;28;20029;-79
2022/10/14 10:17:06;;;;;;;1.38;1.20;;;17.20;99.90;;;;;;4997537;28;20042;-79
2022/10/14 10:19:39;;;;;;;2.03;1.48;;;17.50;99.90;;;;;;5022798;28;20080;-79
2022/10/14 10:22:21;;;;;;;2.03;1.83;;;17.40;99.90;;;;;;5013529;28;20041;-78
2022/10/14 10:25:04;;;;;;;1.63;1.38;;;17.70;99.90;;;;;;5008828;28;20083;-80
2022/10/14 10:27:34;;;;;;;2.30;1.75;;;17.70;99.90;;;;;;5023605;28;20146;-79
2022/10/14 10:30:13;;;;;;;3.75;1.77;;;18.00;99.90;;;;;;5024432;28;20084;-79
2022/10/14 10:33:08;;;;;;;2.42;1.63;;;18.20;99.90;;;;;;5012157;28;20038;-79
2022/10/14 10:35:53;;;;;;;1.60;1.40;;;18.20;99.90;;;;;;4981757;28;20057;-79
2022/10/14 10:38:31;;;;;;;1.48;1.38;;;18.30;99.90;;;;;;5006524;28;20489;-81
2022/10/14 10:41:18;;;;;;;1.48;1.38;;;18.10;99.90;;;;;;5010443;28;20036;-81
2022/10/14 10:43:52;;;;;;;1.90;1.20;;;18.10;99.90;;;;;;5027139;28;20546;-81
2022/10/14 10:46:23;;;;;;;1.40;1.27;;;18.30;99.90;;;;;;5027614;28;20033;-81
2022/10/14 10:48:53;;;;;;;2.35;1.83;;;18.00;99.90;;;;;;5024407;28;20498;-78
2022/10/14 10:51:28;;;;;;;3.83;1.60;;;17.80;99.90;;;;;;5029819;28;20036;-80
2022/10/14 10:54:12;;;;;;;1.30;1.20;;;17.90;99.90;;;;;;5015484;28;20034;-81
2022/10/14 10:56:58;;;;;;;1.27;1.15;;;18.20;99.90;;;;;;5027494;28;20029;-80
2022/10/14 10:59:44;;;;;;;2.95;1.05;;;18.00;99.90;;;;;;5025104;28;20394;-80
2022/10/14 11:02:47;;;;;;;2.60;1.67;;;18.10;99.90;;;;;;4993855;28;20041;-80
2022/10/14 11:05:27;;;;;;;2.20;1.70;;;18.20;99.90;;;;;;4676208;28;10000970;-80
2022/10/14 11:13:56;;;;;;;3.22;1.60;;;18.00;99.90;;;;;;5028729;28;20558;-80
2022/10/14 11:16:54;;;;;;;3.55;1.67;;;18.10;99.90;;;;;;5023741;28;20049;-80
2022/10/14 11:20:13;;;;;;;4.03;1.90;;;18.20;99.90;;;;;;5006850;28;20033;-81
2022/10/14 11:23:03;;;;;;;2.85;2.00;;;18.40;99.90;;;;;;4939289;28;20035;-81
2022/10/14 11:25:29;;;;;;;4.03;2.78;;;18.30;99.90;;;;;;5021316;28;20041;-79
2022/10/14 11:28:08;;;;;;;2.05;1.70;;;18.10;99.90;;;;;;5024089;28;20489;-79
2022/10/14 11:30:37;;;;;;;3.75;2.20;;;18.00;99.90;;;;;;4993268;28;20780;-79
2022/10/14 11:33:25;;;;;;;2.28;1.77;;;18.00;99.90;;;;;;5025806;28;20041;-79
2022/10/14 11:36:18;;;;;;;3.40;2.63;;;18.00;99.90;;;;;;5038264;28;20033;-78
2022/10/14 11:38:53;;;;;;;2.55;2.00;;;17.90;99.90;;;;;;5023888;28;20044;-78
2022/10/14 11:41:27;;;;;;;2.85;2.55;;;18.10;99.90;;;;;;5019844;28;20033;-80
2022/10/14 11:43:55;;;;;;;4.05;2.08;;;18.00;99.90;;;;;;5024758;28;20053;-80
2022/10/14 11:46:21;;;;;;;3.63;2.47;;;18.10;99.90;;;;;;5022321;28;20029;-80
2022/10/14 11:48:54;;;;;;;5.22;3.10;;;18.00;99.90;;;;;;5007579;28;20511;-80
2022/10/14 11:51:26;;;;;;;3.92;2.60;;;18.00;99.90;;;;;;5024068;28;20033;-80
2022/10/14 11:54:00;;;;;;;3.75;2.90;;;18.20;99.90;;;;;;5026610;28;20025;-81
2022/10/14 11:56:31;;;;;;;5.45;3.40;;;18.20;99.90;;;;;;5024028;28;20029;-81
2022/10/14 11:59:20;;;;;;;5.53;3.25;;;18.10;99.90;;;;;;5000180;28;20029;-81
2022/10/14 12:01:47;;;;;;;4.82;3.30;;;18.20;99.90;;;;;;5010003;28;20033;-80
2022/10/14 12:04:21;;;;;;;4.38;2.95;;;18.10;99.90;;;;;;4997527;28;20500;-81
2022/10/14 12:06:50;;;;;;;4.28;3.80;;;18.10;99.90;;;;;;5016372;28;20124;-81
2022/10/14 12:09:25;;;;;;;5.55;4.30;;;18.00;99.90;;;;;;5024116;28;20508;-81
2022/10/14 12:12:00;;;;;;;3.97;3.35;;;18.00;99.90;;;;;;5010022;28;20107;-81
2022/10/14 12:14:35;;;;;;;6.55;4.22;;;17.90;99.90;;;;;;4995907;28;20033;-81
2022/10/14 12:17:19;;;;;;;6.15;3.97;;;17.90;99.90;;;;;;5007175;28;20030;-81
2022/10/14 12:19:51;;;;;;;6.88;4.10;;;17.90;99.90;;;;;;4990878;28;20030;-81
2022/10/14 12:22:20;;;;;;;8.43;4.75;;;17.80;99.90;;;;;;4991621;28;20092;-81
2022/10/14 12:24:49;;;;;;;8.77;4.03;;;17.80;99.90;;;;;;5026400;28;20415;-82
2022/10/14 12:27:15;;;;;;;6.72;3.90;;;17.90;99.90;;;;;;5006238;28;20030;-84
2022/10/14 12:29:44;;;;;;;9.05;4.65;;;17.60;99.90;;;;;;5025582;28;20029;-85
2022/10/14 12:32:20;;;;;;;7.32;4.60;;;17.30;99.90;;;;;;5009904;28;20429;-85
2022/10/14 12:34:47;;;;;;;8.77;5.28;;;17.40;99.90;;;;;;5025486;28;20026;-86
2022/10/14 12:37:30;;;;;;;10.13;4.88;;;17.30;99.90;;;;;;5000554;28;20475;-85
2022/10/14 12:40:04;;;;;;;9.02;5.78;;;17.30;99.90;;;;;;5021061;28;20037;-86
2022/10/14 12:42:31;;;;;;;6.43;4.63;;;17.40;99.90;;;;;;5026751;28;20183;-85
2022/10/14 12:45:00;;;;;;;7.50;5.30;;;17.20;99.90;;;;;;5025522;28;20030;-85
2022/10/14 12:47:34;;;;;;;7.38;5.95;;;17.10;99.90;;;;;;4994376;28;20424;-85
2022/10/14 12:50:21;;;;;;;9.82;6.05;;;17.10;99.90;;;;;;5009633;28;20456;-84
2022/10/14 12:52:54;;;;;;;8.50;4.70;;;17.20;99.90;;;;;;5022951;28;20038;-84
2022/10/14 12:55:21;;;;;;;5.15;4.60;;;17.20;99.90;;;;;;4995443;28;20029;-84
2022/10/14 12:58:02;;;;;;;9.88;4.93;;;17.30;99.90;;;;;;5007572;28;20572;-84